Shelby — WCV6157 — position and weather

sailwx.info

Track history (hours):
 
Tides and Currents Weather Stations Pressure Air Temp Water Temp Dewpoint Dewpoint Depression Visibility Wind Speed Wind Dir Waves Ship Positions

Shelby

Owner: WEEKS MARINE, INC., CRANFORD, NJ. More information available from US FCC via Universal Licensing System and Coast Guard Vessel Documentation Center.

Last reported at 2014-Oct-02 11:28 UTC. Time now 2014-Oct-02 12:26 UTC.
Position N 40°41' W 074°05'.

Length 22 m; draft 3.1 m.

Type: Tug. MMSI: 366939080.

Date/timePositionNaut miles runAvg speedWind from/ knotsBaromVisibWave heightAir tempDewpointWater temp
2014-Oct-02 11:28N 40°41' W 074°05'0 0.0
2014-Oct-02 10:31N 40°41' W 074°05'0 0.0
2014-Oct-02 09:28N 40°41' W 074°05'0 0.0
2014-Oct-02 08:31N 40°41' W 074°05'0 0.0
2014-Oct-02 07:31N 40°41' W 074°05'0 0.0
2014-Oct-02 06:31N 40°41' W 074°05'0 0.0
2014-Oct-02 05:31N 40°41' W 074°05'0 0.0
2014-Oct-02 04:28N 40°41' W 074°05'0 0.0
2014-Oct-02 03:31N 40°41' W 074°05'0 0.0
2014-Oct-02 02:28N 40°41' W 074°05'0 0.0
2014-Oct-02 01:31N 40°41' W 074°05'0 0.0
2014-Oct-02 00:31N 40°41' W 074°05'0 0.0
2014-Oct-01 23:31N 40°41' W 074°05'0 0.0
2014-Oct-01 22:31N 40°41' W 074°05'0 0.0
2014-Oct-01 21:31N 40°41' W 074°05'0 0.1
2014-Oct-01 20:33N 40°41' W 074°04'0 0.1
2014-Oct-01 19:29N 40°41' W 074°05'0 0.0
2014-Oct-01 18:29N 40°41' W 074°05'0 0.0
2014-Oct-01 17:29N 40°41' W 074°05'0 0.0
2014-Oct-01 16:32N 40°41' W 074°05'0 0.2
2014-Oct-01 15:32N 40°41' W 074°04'0 0.1
2014-Oct-01 14:30N 40°41' W 074°04'0 0.2
2014-Oct-01 13:31N 40°40' W 074°05'0 0.1
2014-Oct-01 12:33N 40°41' W 074°05'0 0.1
2014-Oct-01 11:33N 40°40' W 074°05'0 0.1
2014-Oct-01 10:31N 40°41' W 074°05'0 0.0
2014-Oct-01 09:31N 40°41' W 074°05'0 0.0
2014-Oct-01 08:31N 40°41' W 074°05'0 0.0
2014-Oct-01 07:31N 40°41' W 074°05'0 0.0
2014-Oct-01 06:31N 40°41' W 074°05'0 0.0
2014-Oct-01 05:31N 40°41' W 074°05'0 0.0
2014-Oct-01 04:31N 40°41' W 074°05'0 0.0
2014-Oct-01 03:31N 40°41' W 074°05'0 0.0
2014-Oct-01 02:31N 40°41' W 074°05'0 0.0
2014-Oct-01 01:31N 40°41' W 074°05'0 0.0
2014-Oct-01 00:31N 40°41' W 074°05'0 0.0
2014-Sep-30 23:22N 40°41' W 074°05'0 0.0
2014-Sep-30 22:33N 40°41' W 074°05'0 0.0
2014-Sep-30 21:33N 40°41' W 074°05'0 0.1
2014-Sep-30 20:31N 40°41' W 074°05'1 1.3
2014-Sep-30 19:34N 40°41' W 074°03'6 5.6
2014-Sep-30 18:33N 40°45' W 073°58'4 4.3
2014-Sep-30 17:33N 40°48' W 073°54'1 0.1
2014-Sep-30 12:25N 40°48' W 073°55'4 4.8
2014-Sep-30 11:33N 40°45' W 073°58'4 4.0
2014-Sep-30 10:33N 40°41' W 074°01'3 2.5
2014-Sep-30 09:25N 40°41' W 074°04'0 0.0
2014-Sep-30 08:31N 40°41' W 074°04'0 0.0
2014-Sep-30 07:25N 40°41' W 074°04'0 0.0
2014-Sep-30 06:31N 40°41' W 074°04'0 0.0
2014-Sep-30 05:16N 40°41' W 074°04'0 0.0
2014-Sep-30 04:28N 40°41' W 074°04'0 0.0
2014-Sep-30 03:31N 40°41' W 074°04'0 0.0
2014-Sep-30 02:31N 40°41' W 074°04'0 0.0
2014-Sep-30 01:31N 40°41' W 074°04'0 0.0
2014-Sep-30 00:31N 40°41' W 074°04'0 0.0
2014-Sep-29 23:31N 40°41' W 074°04'0 0.0
2014-Sep-29 22:31N 40°41' W 074°04'0 0.0
2014-Sep-29 21:31N 40°41' W 074°05'0 0.0
2014-Sep-29 20:31N 40°41' W 074°04'1 0.5
2014-Sep-29 17:33N 40°39' W 074°05'1 1.4
2014-Sep-29 16:32N 40°41' W 074°04'0 0.0
2014-Sep-29 15:34N 40°41' W 074°04'0 0.1
2014-Sep-29 14:33N 40°41' W 074°05'0 0.0
2014-Sep-29 13:27N 40°41' W 074°05'0 0.0
2014-Sep-29 12:30N 40°41' W 074°05'0 0.0
2014-Sep-29 11:24N 40°41' W 074°05'0 0.0
2014-Sep-29 10:33N 40°41' W 074°05'0 0.0
2014-Sep-29 09:33N 40°41' W 074°05'0 0.0
2014-Sep-29 08:27N 40°41' W 074°05'0 0.0
2014-Sep-29 07:30N 40°41' W 074°05'0 0.0
2014-Sep-29 06:27N 40°41' W 074°05'0 0.0
2014-Sep-29 05:33N 40°41' W 074°05'0 0.0
2014-Sep-29 04:30N 40°41' W 074°05'0 0.0
2014-Sep-29 03:30N 40°41' W 074°05'0 0.0
2014-Sep-29 02:33N 40°41' W 074°05'0 0.0
2014-Sep-29 01:21N 40°41' W 074°05'0 0.0
2014-Sep-29 00:30N 40°41' W 074°05'0 0.0
2014-Sep-28 23:18N 40°41' W 074°05'1 1.5
2014-Sep-28 22:33N 40°40' W 074°04'4 1.8
2014-Sep-28 20:33N 40°41' W 074°08'1 0.7
2014-Sep-28 19:19N 40°41' W 074°09'1 0.8
2014-Sep-28 18:33N 40°40' W 074°08'0 0.0
2014-Sep-28 17:33N 40°40' W 074°08'0 0.0
2014-Sep-28 16:27N 40°40' W 074°08'0 0.0
2014-Sep-28 15:30N 40°40' W 074°08'2 2.0
2014-Sep-28 14:34N 40°39' W 074°08'3 3.0
2014-Sep-28 13:32N 40°41' W 074°05'0 0.1
2014-Sep-28 12:32N 40°41' W 074°05'0 0.0
2014-Sep-28 11:31N 40°41' W 074°05'0 0.0
2014-Sep-28 10:31N 40°41' W 074°05'0 0.0
2014-Sep-28 09:31N 40°41' W 074°05'0 0.0
2014-Sep-28 08:31N 40°41' W 074°05'0 0.0
2014-Sep-28 07:31N 40°41' W 074°05'0 0.0
2014-Sep-28 06:31N 40°41' W 074°05'0 0.0
2014-Sep-28 05:31N 40°41' W 074°05'0 0.0
2014-Sep-28 04:28N 40°41' W 074°05'0 0.0
2014-Sep-28 02:28N 40°41' W 074°05'0 0.0
2014-Sep-28 01:22N 40°41' W 074°05'0 0.0
2014-Sep-28 00:31N 40°41' W 074°05'0 0.0
2014-Sep-27 23:31N 40°41' W 074°05'0 0.0
2014-Sep-27 22:13N 40°41' W 074°05'0 0.0
2014-Sep-27 08:31N 40°41' W 074°05'0 0.0
2014-Sep-27 07:31N 40°41' W 074°05'0 0.0
2014-Sep-27 06:31N 40°41' W 074°05'0 0.0
2014-Sep-27 05:31N 40°41' W 074°05'0 0.0
2014-Sep-27 04:31N 40°41' W 074°05'0 0.0
2014-Sep-27 03:31N 40°41' W 074°05'0 0.0
2014-Sep-27 02:31N 40°41' W 074°05'0 0.0
2014-Sep-27 01:31N 40°41' W 074°05'0 0.0
2014-Sep-27 00:31N 40°41' W 074°05'0 0.0
2014-Sep-26 23:31N 40°41' W 074°05'0 0.0
2014-Sep-26 22:31N 40°41' W 074°05'0 0.1
2014-Sep-26 21:33N 40°41' W 074°04'0 0.0
2014-Sep-26 20:29N 40°41' W 074°04'0 0.1
2014-Sep-26 19:21N 40°41' W 074°05'0 0.0
2014-Sep-26 18:30N 40°41' W 074°05'0 0.0
2014-Sep-26 17:21N 40°41' W 074°05'0 0.0
2014-Sep-26 16:15N 40°41' W 074°05'0 0.1
2014-Sep-26 15:32N 40°40' W 074°05'0 0.1
2014-Sep-26 14:32N 40°41' W 074°05'0 0.1
2014-Sep-26 13:32N 40°41' W 074°04'0 0.2
2014-Sep-26 12:30N 40°41' W 074°04'0 0.0
2014-Sep-26 11:33N 40°41' W 074°04'0 0.2
2014-Sep-26 10:32N 40°41' W 074°05'0 0.0
2014-Sep-26 09:32N 40°41' W 074°05'0 0.0
2014-Sep-26 08:31N 40°41' W 074°05'0 0.0
2014-Sep-26 07:31N 40°41' W 074°05'0 0.0
2014-Sep-26 06:31N 40°41' W 074°05'0 0.0
2014-Sep-26 05:28N 40°41' W 074°05'0 0.0
2014-Sep-26 04:31N 40°41' W 074°05'0 0.0
2014-Sep-26 03:31N 40°41' W 074°05'0 0.0
2014-Sep-26 02:31N 40°41' W 074°05'0 0.0
2014-Sep-26 01:31N 40°41' W 074°05'0 0.0
2014-Sep-25 15:32N 40°41' W 074°05'0 0.0
2014-Sep-25 12:26N 40°41' W 074°05'0 0.0
2014-Sep-25 11:29N 40°41' W 074°05'0 0.0
2014-Sep-25 10:26N 40°41' W 074°05'0 0.0
2014-Sep-25 09:29N 40°41' W 074°05'0 0.0
2014-Sep-25 08:26N 40°41' W 074°05'0 0.0
2014-Sep-25 07:32N 40°41' W 074°05'0 0.0
2014-Sep-25 06:32N 40°41' W 074°05'0 0.0
2014-Sep-25 05:29N 40°41' W 074°05'0 0.0
2014-Sep-25 04:32N 40°41' W 074°05'0 0.0
2014-Sep-25 03:32N 40°41' W 074°05'0 0.0
2014-Sep-25 02:32N 40°41' W 074°05'0 0.0
2014-Sep-25 01:32N 40°41' W 074°05'0 0.0
2014-Sep-25 00:32N 40°41' W 074°05'0 0.0
2014-Sep-24 23:32N 40°41' W 074°05'0 0.0
2014-Sep-24 22:32N 40°41' W 074°05'0 0.0
2014-Sep-24 21:32N 40°41' W 074°05'3 3.2
2014-Sep-24 20:31N 40°38' W 074°03'4 3.8
2014-Sep-24 19:33N 40°34' W 074°02'7 6.4
2014-Sep-24 18:30N 40°29' W 073°56'39 7.7
2014-Sep-24 13:26N 39°50' W 074°02'7 7.8
2014-Sep-24 12:33N 39°44' W 074°04'8 7.6
2014-Sep-24 11:27N 39°36' W 074°08'  
Track history (hours):
 
Tides and Currents Weather Stations Pressure Air Temp Water Temp Dewpoint Dewpoint Depression Visibility Wind Speed Wind Dir Waves Ship Positions

Shelby

Owner: WEEKS MARINE, INC., CRANFORD, NJ. More information available from US FCC via Universal Licensing System and Coast Guard Vessel Documentation Center.

Last reported at 2014-Oct-02 11:28 UTC. Time now 2014-Oct-02 12:26 UTC.
Position N 40°41' W 074°05'.

Length 22 m; draft 3.1 m.

Type: Tug. MMSI: 366939080.

Date/timePositionNaut miles runAvg speedWind from/ knotsBaromVisibWave heightAir tempDewpointWater temp
2014-Oct-02 11:28N 40°41' W 074°05'0 0.0
2014-Oct-02 10:31N 40°41' W 074°05'0 0.0
2014-Oct-02 09:28N 40°41' W 074°05'0 0.0
2014-Oct-02 08:31N 40°41' W 074°05'0 0.0
2014-Oct-02 07:31N 40°41' W 074°05'0 0.0
2014-Oct-02 06:31N 40°41' W 074°05'0 0.0
2014-Oct-02 05:31N 40°41' W 074°05'0 0.0
2014-Oct-02 04:28N 40°41' W 074°05'0 0.0
2014-Oct-02 03:31N 40°41' W 074°05'0 0.0
2014-Oct-02 02:28N 40°41' W 074°05'0 0.0
2014-Oct-02 01:31N 40°41' W 074°05'0 0.0
2014-Oct-02 00:31N 40°41' W 074°05'0 0.0
2014-Oct-01 23:31N 40°41' W 074°05'0 0.0
2014-Oct-01 22:31N 40°41' W 074°05'0 0.0
2014-Oct-01 21:31N 40°41' W 074°05'0 0.1
2014-Oct-01 20:33N 40°41' W 074°04'0 0.1
2014-Oct-01 19:29N 40°41' W 074°05'0 0.0
2014-Oct-01 18:29N 40°41' W 074°05'0 0.0
2014-Oct-01 17:29N 40°41' W 074°05'0 0.0
2014-Oct-01 16:32N 40°41' W 074°05'0 0.2
2014-Oct-01 15:32N 40°41' W 074°04'0 0.1
2014-Oct-01 14:30N 40°41' W 074°04'0 0.2
2014-Oct-01 13:31N 40°40' W 074°05'0 0.1
2014-Oct-01 12:33N 40°41' W 074°05'0 0.1
2014-Oct-01 11:33N 40°40' W 074°05'0 0.1
2014-Oct-01 10:31N 40°41' W 074°05'0 0.0
2014-Oct-01 09:31N 40°41' W 074°05'0 0.0
2014-Oct-01 08:31N 40°41' W 074°05'0 0.0
2014-Oct-01 07:31N 40°41' W 074°05'0 0.0
2014-Oct-01 06:31N 40°41' W 074°05'0 0.0
2014-Oct-01 05:31N 40°41' W 074°05'0 0.0
2014-Oct-01 04:31N 40°41' W 074°05'0 0.0
2014-Oct-01 03:31N 40°41' W 074°05'0 0.0
2014-Oct-01 02:31N 40°41' W 074°05'0 0.0
2014-Oct-01 01:31N 40°41' W 074°05'0 0.0
2014-Oct-01 00:31N 40°41' W 074°05'0 0.0
2014-Sep-30 23:22N 40°41' W 074°05'0 0.0
2014-Sep-30 22:33N 40°41' W 074°05'0 0.0
2014-Sep-30 21:33N 40°41' W 074°05'0 0.1
2014-Sep-30 20:31N 40°41' W 074°05'1 1.3
2014-Sep-30 19:34N 40°41' W 074°03'6 5.6
2014-Sep-30 18:33N 40°45' W 073°58'4 4.3
2014-Sep-30 17:33N 40°48' W 073°54'1 0.1
2014-Sep-30 12:25N 40°48' W 073°55'4 4.8
2014-Sep-30 11:33N 40°45' W 073°58'4 4.0
2014-Sep-30 10:33N 40°41' W 074°01'3 2.5
2014-Sep-30 09:25N 40°41' W 074°04'0 0.0
2014-Sep-30 08:31N 40°41' W 074°04'0 0.0
2014-Sep-30 07:25N 40°41' W 074°04'0 0.0
2014-Sep-30 06:31N 40°41' W 074°04'0 0.0
2014-Sep-30 05:16N 40°41' W 074°04'0 0.0
2014-Sep-30 04:28N 40°41' W 074°04'0 0.0
2014-Sep-30 03:31N 40°41' W 074°04'0 0.0
2014-Sep-30 02:31N 40°41' W 074°04'0 0.0
2014-Sep-30 01:31N 40°41' W 074°04'0 0.0
2014-Sep-30 00:31N 40°41' W 074°04'0 0.0
2014-Sep-29 23:31N 40°41' W 074°04'0 0.0
2014-Sep-29 22:31N 40°41' W 074°04'0 0.0
2014-Sep-29 21:31N 40°41' W 074°05'0 0.0
2014-Sep-29 20:31N 40°41' W 074°04'1 0.5
2014-Sep-29 17:33N 40°39' W 074°05'1 1.4
2014-Sep-29 16:32N 40°41' W 074°04'0 0.0
2014-Sep-29 15:34N 40°41' W 074°04'0 0.1
2014-Sep-29 14:33N 40°41' W 074°05'0 0.0
2014-Sep-29 13:27N 40°41' W 074°05'0 0.0
2014-Sep-29 12:30N 40°41' W 074°05'0 0.0
2014-Sep-29 11:24N 40°41' W 074°05'0 0.0
2014-Sep-29 10:33N 40°41' W 074°05'0 0.0
2014-Sep-29 09:33N 40°41' W 074°05'0 0.0
2014-Sep-29 08:27N 40°41' W 074°05'0 0.0
2014-Sep-29 07:30N 40°41' W 074°05'0 0.0
2014-Sep-29 06:27N 40°41' W 074°05'0 0.0
2014-Sep-29 05:33N 40°41' W 074°05'0 0.0
2014-Sep-29 04:30N 40°41' W 074°05'0 0.0
2014-Sep-29 03:30N 40°41' W 074°05'0 0.0
2014-Sep-29 02:33N 40°41' W 074°05'0 0.0
2014-Sep-29 01:21N 40°41' W 074°05'0 0.0
2014-Sep-29 00:30N 40°41' W 074°05'0 0.0
2014-Sep-28 23:18N 40°41' W 074°05'1 1.5
2014-Sep-28 22:33N 40°40' W 074°04'4 1.8
2014-Sep-28 20:33N 40°41' W 074°08'1 0.7
2014-Sep-28 19:19N 40°41' W 074°09'1 0.8
2014-Sep-28 18:33N 40°40' W 074°08'0 0.0
2014-Sep-28 17:33N 40°40' W 074°08'0 0.0
2014-Sep-28 16:27N 40°40' W 074°08'0 0.0
2014-Sep-28 15:30N 40°40' W 074°08'2 2.0
2014-Sep-28 14:34N 40°39' W 074°08'3 3.0
2014-Sep-28 13:32N 40°41' W 074°05'0 0.1
2014-Sep-28 12:32N 40°41' W 074°05'0 0.0
2014-Sep-28 11:31N 40°41' W 074°05'0 0.0
2014-Sep-28 10:31N 40°41' W 074°05'0 0.0
2014-Sep-28 09:31N 40°41' W 074°05'0 0.0
2014-Sep-28 08:31N 40°41' W 074°05'0 0.0
2014-Sep-28 07:31N 40°41' W 074°05'0 0.0
2014-Sep-28 06:31N 40°41' W 074°05'0 0.0
2014-Sep-28 05:31N 40°41' W 074°05'0 0.0
2014-Sep-28 04:28N 40°41' W 074°05'0 0.0
2014-Sep-28 02:28N 40°41' W 074°05'0 0.0
2014-Sep-28 01:22N 40°41' W 074°05'0 0.0
2014-Sep-28 00:31N 40°41' W 074°05'0 0.0
2014-Sep-27 23:31N 40°41' W 074°05'0 0.0
2014-Sep-27 22:13N 40°41' W 074°05'0 0.0
2014-Sep-27 08:31N 40°41' W 074°05'0 0.0
2014-Sep-27 07:31N 40°41' W 074°05'0 0.0
2014-Sep-27 06:31N 40°41' W 074°05'0 0.0
2014-Sep-27 05:31N 40°41' W 074°05'0 0.0
2014-Sep-27 04:31N 40°41' W 074°05'0 0.0
2014-Sep-27 03:31N 40°41' W 074°05'0 0.0
2014-Sep-27 02:31N 40°41' W 074°05'0 0.0
2014-Sep-27 01:31N 40°41' W 074°05'0 0.0
2014-Sep-27 00:31N 40°41' W 074°05'0 0.0
2014-Sep-26 23:31N 40°41' W 074°05'0 0.0
2014-Sep-26 22:31N 40°41' W 074°05'0 0.1
2014-Sep-26 21:33N 40°41' W 074°04'0 0.0
2014-Sep-26 20:29N 40°41' W 074°04'0 0.1
2014-Sep-26 19:21N 40°41' W 074°05'0 0.0
2014-Sep-26 18:30N 40°41' W 074°05'0 0.0
2014-Sep-26 17:21N 40°41' W 074°05'0 0.0
2014-Sep-26 16:15N 40°41' W 074°05'0 0.1
2014-Sep-26 15:32N 40°40' W 074°05'0 0.1
2014-Sep-26 14:32N 40°41' W 074°05'0 0.1
2014-Sep-26 13:32N 40°41' W 074°04'0 0.2
2014-Sep-26 12:30N 40°41' W 074°04'0 0.0
2014-Sep-26 11:33N 40°41' W 074°04'0 0.2
2014-Sep-26 10:32N 40°41' W 074°05'0 0.0
2014-Sep-26 09:32N 40°41' W 074°05'0 0.0
2014-Sep-26 08:31N 40°41' W 074°05'0 0.0
2014-Sep-26 07:31N 40°41' W 074°05'0 0.0
2014-Sep-26 06:31N 40°41' W 074°05'0 0.0
2014-Sep-26 05:28N 40°41' W 074°05'0 0.0
2014-Sep-26 04:31N 40°41' W 074°05'0 0.0
2014-Sep-26 03:31N 40°41' W 074°05'0 0.0
2014-Sep-26 02:31N 40°41' W 074°05'0 0.0
2014-Sep-26 01:31N 40°41' W 074°05'0 0.0
2014-Sep-25 15:32N 40°41' W 074°05'0 0.0
2014-Sep-25 12:26N 40°41' W 074°05'0 0.0
2014-Sep-25 11:29N 40°41' W 074°05'0 0.0
2014-Sep-25 10:26N 40°41' W 074°05'0 0.0
2014-Sep-25 09:29N 40°41' W 074°05'0 0.0
2014-Sep-25 08:26N 40°41' W 074°05'0 0.0
2014-Sep-25 07:32N 40°41' W 074°05'0 0.0
2014-Sep-25 06:32N 40°41' W 074°05'0 0.0
2014-Sep-25 05:29N 40°41' W 074°05'0 0.0
2014-Sep-25 04:32N 40°41' W 074°05'0 0.0
2014-Sep-25 03:32N 40°41' W 074°05'0 0.0
2014-Sep-25 02:32N 40°41' W 074°05'0 0.0
2014-Sep-25 01:32N 40°41' W 074°05'0 0.0
2014-Sep-25 00:32N 40°41' W 074°05'0 0.0
2014-Sep-24 23:32N 40°41' W 074°05'0 0.0
2014-Sep-24 22:32N 40°41' W 074°05'0 0.0
2014-Sep-24 21:32N 40°41' W 074°05'3 3.2
2014-Sep-24 20:31N 40°38' W 074°03'4 3.8
2014-Sep-24 19:33N 40°34' W 074°02'7 6.4
2014-Sep-24 18:30N 40°29' W 073°56'39 7.7
2014-Sep-24 13:26N 39°50' W 074°02'7 7.8
2014-Sep-24 12:33N 39°44' W 074°04'8 7.6
2014-Sep-24 11:27N 39°36' W 074°08'  

Dump ship's entire track history